Terminal Aerodrome Forecast
Issued by NWS Grand Forks, ND

Home | Current Version | Previous Version | Graphics & Text | Print | Product List | Glossary On
Versions: 1 2 3 4 5 6 7 8 9 10 11 12 13 14 15 16 17 18 19 20
000
FTUS43 KFGF 191135
TAFFAR
TAF
KFAR 191135Z 1912/2012 14010KT 4SM BR OVC004
      TEMPO 1912/1914 1SM BR OVC002
     FM191500 15020G30KT P6SM OVC020
     FM191700 15023G34KT P6SM BKN035
     FM200000 14022G33KT P6SM TSRA OVC035CB
     FM200600 20015G23KT P6SM VCSH OVC025=

USA.gov is the U.S. government's official web portal to all federal, state and local government web resources and services.